createdAt,value
2019-03-29T00:00:43.521Z,11.40
2019-03-29T00:03:12.944Z,12.43
2019-03-29T00:05:42.392Z,12.47
2019-03-29T00:08:11.888Z,12.33
2019-03-29T00:10:41.312Z,12.67
2019-03-29T00:13:10.752Z,13.23
2019-03-29T00:15:41.988Z,12.50
2019-03-29T00:18:11.392Z,12.17
2019-03-29T00:20:41.188Z,13.30
2019-03-29T00:23:10.652Z,13.43
2019-03-29T00:25:40.093Z,13.20
2019-03-29T00:28:09.549Z,13.80
2019-03-29T00:30:39.893Z,13.60
2019-03-29T00:33:09.308Z,14.33
2019-03-29T00:35:38.724Z,14.07
2019-03-29T00:38:08.233Z,13.00
2019-03-29T00:40:37.668Z,13.50
2019-03-29T00:43:07.281Z,15.00
2019-03-29T00:45:36.729Z,14.23
2019-03-29T00:48:06.265Z,13.37
2019-03-29T00:50:35.900Z,13.97
2019-03-29T00:53:05.354Z,14.27
2019-03-29T00:55:34.864Z,15.27
2019-03-29T00:58:04.504Z,17.63
2019-03-29T01:00:33.972Z,14.40
2019-03-29T01:03:03.815Z,14.60
2019-03-29T01:05:33.496Z,15.03
2019-03-29T01:08:08.233Z,14.80
2019-03-29T01:10:34.873Z,15.00
2019-03-29T01:13:05.002Z,15.27
2019-03-29T01:15:35.209Z,14.33
2019-03-29T01:18:05.597Z,15.60
2019-03-29T01:20:35.111Z,14.53
2019-03-29T01:23:04.649Z,16.13
2019-03-29T01:25:35.239Z,15.27
2019-03-29T01:28:05.144Z,16.67
2019-03-29T01:30:34.836Z,16.43
2019-03-29T01:33:04.377Z,16.73
2019-03-29T01:35:33.860Z,15.33
2019-03-29T01:38:03.602Z,15.80
2019-03-29T01:40:33.056Z,16.23
2019-03-29T01:43:02.485Z,16.43
2019-03-29T01:45:31.904Z,16.63
2019-03-29T01:48:01.344Z,17.30
2019-03-29T01:50:31.033Z,16.97
2019-03-29T01:53:00.496Z,15.80
2019-03-29T01:55:30.052Z,17.60
2019-03-29T01:57:59.506Z,15.30
2019-03-29T02:00:31.776Z,16.40
2019-03-29T02:03:01.354Z,15.77
2019-03-29T02:05:30.881Z,16.90
2019-03-29T02:08:00.327Z,15.77
2019-03-29T02:10:29.912Z,15.90
2019-03-29T02:12:59.870Z,15.87
2019-03-29T02:15:29.936Z,14.00
2019-03-29T02:17:59.738Z,15.30
2019-03-29T02:20:29.182Z,14.07
2019-03-29T02:22:58.577Z,15.90
2019-03-29T02:25:27.996Z,13.93
2019-03-29T02:27:57.521Z,11.83
2019-03-29T02:30:27.045Z,13.33
2019-03-29T02:32:56.497Z,13.80
2019-03-29T02:35:25.921Z,14.30
2019-03-29T02:37:56.359Z,13.53
2019-03-29T02:40:26.074Z,14.50
2019-03-29T02:42:55.532Z,14.83
2019-03-29T02:45:25.004Z,14.83
2019-03-29T02:47:54.397Z,14.90
2019-03-29T02:50:24.160Z,14.80
2019-03-29T02:52:53.486Z,16.03
2019-03-29T02:55:22.898Z,14.43
2019-03-29T02:57:52.361Z,14.07
2019-03-29T03:00:21.785Z,15.43
2019-03-29T03:02:51.127Z,13.93
2019-03-29T03:05:20.525Z,13.40
2019-03-29T03:07:49.989Z,14.73
2019-03-29T03:10:20.141Z,14.60
2019-03-29T03:12:49.655Z,14.87
2019-03-29T03:15:19.354Z,15.20
2019-03-29T03:17:48.680Z,14.60
2019-03-29T03:20:18.606Z,14.47
2019-03-29T03:22:48.029Z,14.10
2019-03-29T03:25:17.468Z,15.03
2019-03-29T03:27:47.013Z,15.50
2019-03-29T03:30:16.866Z,15.97
2019-03-29T03:32:46.290Z,13.33
2019-03-29T03:35:16.700Z,14.40
2019-03-29T03:37:46.512Z,13.27
2019-03-29T03:40:16.070Z,14.33
2019-03-29T03:42:45.410Z,14.70
2019-03-29T03:45:15.220Z,15.10
2019-03-29T03:47:44.821Z,14.30
2019-03-29T03:50:42.677Z,16.67
2019-03-29T03:53:12.609Z,13.73
2019-03-29T03:55:42.918Z,13.13
2019-03-29T03:58:13.056Z,14.17
2019-03-29T04:00:55.737Z,14.97
2019-03-29T04:03:25.840Z,13.90
2019-03-29T04:05:56.068Z,14.20
2019-03-29T04:08:26.143Z,14.03
2019-03-29T04:10:55.752Z,15.73
2019-03-29T04:13:25.279Z,16.17
2019-03-29T04:15:54.842Z,15.57
2019-03-29T04:18:24.310Z,15.87
2019-03-29T04:20:53.745Z,17.80
2019-03-29T04:23:23.169Z,14.87
2019-03-29T04:25:52.984Z,15.03
2019-03-29T04:28:22.435Z,15.80
2019-03-29T04:30:51.949Z,14.23
2019-03-29T04:33:21.427Z,16.33
2019-03-29T04:35:51.238Z,15.27
2019-03-29T04:38:20.721Z,14.40
2019-03-29T04:40:50.157Z,16.37
2019-03-29T04:43:19.666Z,16.23
2019-03-29T04:45:49.254Z,14.80
2019-03-29T04:48:18.790Z,16.50
2019-03-29T04:50:48.326Z,15.10
2019-03-29T04:53:17.697Z,15.07
2019-03-29T04:55:47.231Z,15.37
2019-03-29T04:58:16.644Z,14.87
2019-03-29T05:00:45.985Z,16.27
2019-03-29T05:03:15.484Z,15.83
2019-03-29T05:05:44.948Z,16.27
2019-03-29T05:08:14.375Z,16.80
2019-03-29T05:10:43.812Z,16.40
2019-03-29T05:13:13.125Z,17.17
2019-03-29T05:15:42.673Z,15.63
2019-03-29T05:18:12.013Z,15.90
2019-03-29T05:20:41.376Z,17.40
2019-03-29T05:23:10.844Z,15.90
2019-03-29T05:25:40.296Z,17.30
2019-03-29T05:28:09.660Z,16.30
2019-03-29T05:30:39.068Z,16.43
2019-03-29T05:33:08.604Z,16.17
2019-03-29T05:35:37.940Z,17.20
2019-03-29T05:38:07.463Z,17.10
2019-03-29T05:40:36.941Z,17.13
2019-03-29T05:43:06.364Z,16.63
2019-03-29T05:45:35.707Z,16.83
2019-03-29T05:48:05.264Z,20.23
2019-03-29T05:50:36.860Z,16.07
2019-03-29T05:53:05.796Z,15.80
2019-03-29T05:55:35.312Z,15.47
2019-03-29T05:58:04.884Z,16.47
2019-03-29T06:00:34.420Z,16.60
2019-03-29T06:03:03.849Z,16.97
2019-03-29T06:05:33.491Z,16.77
2019-03-29T06:08:02.852Z,16.83
2019-03-29T06:10:32.329Z,20.73
2019-03-29T06:13:01.760Z,20.43
2019-03-29T06:15:31.447Z,17.77
2019-03-29T06:18:00.896Z,19.20
2019-03-29T06:20:30.459Z,17.63
2019-03-29T06:23:00.050Z,18.90
2019-03-29T06:25:29.502Z,17.20
2019-03-29T06:27:59.128Z,16.57
2019-03-29T06:30:32.143Z,15.63
2019-03-29T06:33:02.873Z,16.13
2019-03-29T06:35:35.905Z,15.63
2019-03-29T06:38:08.513Z,15.60
2019-03-29T06:40:38.062Z,17.30
2019-03-29T06:43:07.589Z,16.93
2019-03-29T06:45:47.282Z,15.20
2019-03-29T06:48:08.312Z,16.97
2019-03-29T06:50:37.780Z,16.10
2019-03-29T06:53:07.343Z,15.33
2019-03-29T06:55:36.815Z,14.43
2019-03-29T06:58:06.276Z,16.33
2019-03-29T07:00:35.748Z,16.67
2019-03-29T07:03:05.152Z,14.23
2019-03-29T07:05:34.641Z,15.07
2019-03-29T07:08:04.464Z,18.00
2019-03-29T07:10:33.981Z,13.17
2019-03-29T07:13:03.521Z,16.70
2019-03-29T07:15:32.843Z,17.63
2019-03-29T07:18:02.176Z,14.13
2019-03-29T07:20:32.423Z,16.50
2019-03-29T07:23:01.837Z,16.27
2019-03-29T07:25:31.301Z,16.27
2019-03-29T07:28:00.632Z,15.37
2019-03-29T07:30:30.272Z,19.40
2019-03-29T07:32:59.774Z,18.00
2019-03-29T07:35:29.288Z,19.53
2019-03-29T07:37:58.732Z,16.93
2019-03-29T07:40:28.215Z,17.40
2019-03-29T07:42:57.756Z,18.50
2019-03-29T07:45:27.222Z,17.17
2019-03-29T07:47:56.572Z,16.70
2019-03-29T07:50:26.076Z,22.67
2019-03-29T07:52:55.434Z,16.07
2019-03-29T07:55:24.872Z,15.27
2019-03-29T07:57:54.421Z,16.07
2019-03-29T08:00:23.829Z,14.30
2019-03-29T08:02:53.318Z,14.40
2019-03-29T08:05:22.914Z,14.27
2019-03-29T08:07:52.355Z,15.03
2019-03-29T08:10:27.584Z,15.60
2019-03-29T08:12:53.025Z,13.47
2019-03-29T08:15:22.428Z,14.77
2019-03-29T08:17:52.081Z,15.70
2019-03-29T08:20:40.616Z,14.83
2019-03-29T08:22:52.748Z,14.70
2019-03-29T08:25:22.088Z,15.90
2019-03-29T08:27:51.528Z,13.90
2019-03-29T08:30:20.976Z,14.20
2019-03-29T08:32:50.403Z,14.47
2019-03-29T08:35:19.722Z,14.57
2019-03-29T08:37:49.133Z,14.67
2019-03-29T08:40:18.619Z,14.13
2019-03-29T08:42:48.083Z,15.60
2019-03-29T08:45:17.772Z,15.20
2019-03-29T08:47:47.209Z,13.70
2019-03-29T08:50:16.840Z,14.57
2019-03-29T08:52:46.340Z,16.00
2019-03-29T08:55:17.661Z,13.23
2019-03-29T08:57:47.404Z,14.53
2019-03-29T09:00:23.085Z,12.73
2019-03-29T09:02:52.604Z,12.63
2019-03-29T09:05:22.052Z,13.13
2019-03-29T09:07:51.708Z,13.77
2019-03-29T09:10:25.512Z,12.77
2019-03-29T09:12:55.362Z,13.80
2019-03-29T09:15:24.812Z,11.93
2019-03-29T09:17:54.220Z,13.13
2019-03-29T09:20:24.428Z,11.20
2019-03-29T09:22:54.004Z,10.50
2019-03-29T09:25:23.456Z,13.73
2019-03-29T09:27:53.042Z,13.20
2019-03-29T09:30:22.557Z,11.67
2019-03-29T09:32:52.100Z,9.43
2019-03-29T09:35:21.521Z,8.90
2019-03-29T09:37:51.024Z,10.37
2019-03-29T09:40:20.973Z,10.47
2019-03-29T09:42:55.727Z,9.03
2019-03-29T09:45:21.696Z,10.00
2019-03-29T09:47:51.440Z,9.00
2019-03-29T09:50:22.906Z,9.60
2019-03-29T09:52:52.097Z,10.80
2019-03-29T09:55:21.558Z,9.57
2019-03-29T09:57:51.258Z,8.20
2019-03-29T10:00:23.572Z,9.53
2019-03-29T10:02:52.060Z,8.93
2019-03-29T10:05:21.425Z,9.57
2019-03-29T10:07:50.813Z,10.00
2019-03-29T10:10:20.389Z,9.50
2019-03-29T10:12:49.859Z,10.60
2019-03-29T10:15:19.305Z,10.30
2019-03-29T10:17:48.710Z,10.40
2019-03-29T10:20:18.128Z,10.37
2019-03-29T10:22:47.759Z,9.27
2019-03-29T10:25:19.630Z,8.63
2019-03-29T10:27:48.797Z,8.77
2019-03-29T10:30:36.672Z,8.80
2019-03-29T10:33:06.178Z,10.10
2019-03-29T10:35:50.260Z,9.13
2019-03-29T10:38:06.956Z,9.57
2019-03-29T10:40:36.696Z,9.90
2019-03-29T10:43:09.740Z,8.13
2019-03-29T10:45:40.810Z,7.57
2019-03-29T10:48:10.740Z,9.53
2019-03-29T10:50:40.249Z,7.80
2019-03-29T10:53:09.660Z,7.77
2019-03-29T10:55:39.886Z,7.73
2019-03-29T10:58:10.033Z,6.90
2019-03-29T11:00:40.840Z,8.10
2019-03-29T11:03:10.898Z,7.90
2019-03-29T11:05:40.435Z,6.83
2019-03-29T11:08:12.157Z,7.27
2019-03-29T11:10:41.477Z,6.03
2019-03-29T11:13:13.852Z,7.60
2019-03-29T11:15:42.212Z,5.83
2019-03-29T11:18:11.749Z,5.90
2019-03-29T11:20:41.176Z,5.73
2019-03-29T11:23:10.698Z,5.57
2019-03-29T11:25:40.210Z,6.10
2019-03-29T11:28:09.880Z,6.90
2019-03-29T11:30:42.512Z,7.73
2019-03-29T11:33:11.518Z,6.00
2019-03-29T11:35:40.953Z,7.13
2019-03-29T11:38:10.293Z,6.40
2019-03-29T11:40:39.728Z,6.70
2019-03-29T11:43:09.230Z,6.57
2019-03-29T11:45:38.756Z,5.63
2019-03-29T11:48:09.672Z,5.30
2019-03-29T11:50:39.532Z,5.63
2019-03-29T11:53:08.956Z,6.53
2019-03-29T11:55:38.385Z,5.07
2019-03-29T11:58:07.816Z,6.80
2019-03-29T12:00:38.804Z,6.57
2019-03-29T12:03:09.416Z,6.20
2019-03-29T12:05:39.736Z,6.97
2019-03-29T12:08:09.649Z,5.27
2019-03-29T12:10:39.244Z,5.40
2019-03-29T12:13:09.884Z,5.53
2019-03-29T12:15:39.692Z,4.40
2019-03-29T12:18:09.276Z,4.60
2019-03-29T12:20:38.580Z,4.60
2019-03-29T12:23:08.172Z,4.23
2019-03-29T12:25:37.612Z,3.87
2019-03-29T12:28:07.386Z,4.90
2019-03-29T12:30:37.116Z,4.17
2019-03-29T12:33:06.574Z,5.20
2019-03-29T12:35:36.056Z,3.83
2019-03-29T12:38:05.469Z,4.40
2019-03-29T12:40:34.818Z,4.80
2019-03-29T12:43:04.408Z,4.60
2019-03-29T12:45:33.825Z,4.13
2019-03-29T12:48:03.338Z,4.10
2019-03-29T12:50:33.584Z,4.33
2019-03-29T12:53:02.881Z,4.23
2019-03-29T12:55:32.700Z,3.17
2019-03-29T12:58:02.125Z,3.13
2019-03-29T13:00:31.664Z,3.60
2019-03-29T13:03:01.106Z,3.43
2019-03-29T13:05:30.541Z,4.13
2019-03-29T13:07:59.860Z,4.67
2019-03-29T13:10:29.262Z,4.50
2019-03-29T13:13:00.555Z,3.93
2019-03-29T13:15:29.799Z,4.13
2019-03-29T13:17:59.297Z,3.57
2019-03-29T13:20:28.676Z,3.63
2019-03-29T13:22:57.991Z,4.00
2019-03-29T13:25:27.490Z,4.23
2019-03-29T13:27:59.388Z,3.10
2019-03-29T13:30:28.062Z,3.37
2019-03-29T13:32:57.527Z,3.30
2019-03-29T13:35:27.012Z,3.40
2019-03-29T13:37:56.479Z,3.77
2019-03-29T13:40:26.044Z,4.33
2019-03-29T13:42:55.713Z,3.73
2019-03-29T13:45:27.912Z,3.77
2019-03-29T13:47:56.452Z,4.43
2019-03-29T13:50:25.881Z,4.33
2019-03-29T13:52:55.420Z,3.87
2019-03-29T13:55:24.825Z,3.53
2019-03-29T13:57:54.252Z,3.70
2019-03-29T14:00:23.664Z,3.80
2019-03-29T14:02:53.161Z,4.67
2019-03-29T14:05:22.580Z,4.80
2019-03-29T14:07:51.977Z,4.00
2019-03-29T14:10:21.400Z,4.37
2019-03-29T14:12:50.938Z,3.50
2019-03-29T14:15:20.433Z,4.67
2019-03-29T14:17:50.116Z,3.93
2019-03-29T14:20:32.121Z,4.10
2019-03-29T14:23:01.972Z,4.40
2019-03-29T14:25:31.390Z,4.60
2019-03-29T14:28:00.880Z,4.37
2019-03-29T14:30:30.440Z,5.00
2019-03-29T14:32:59.760Z,3.80
2019-03-29T14:35:29.413Z,5.33
2019-03-29T14:37:58.880Z,4.03
2019-03-29T14:40:28.367Z,3.90
2019-03-29T14:42:58.188Z,4.47
2019-03-29T14:45:27.669Z,5.03
2019-03-29T14:47:57.108Z,5.10
2019-03-29T14:50:26.468Z,4.43
2019-03-29T14:52:55.948Z,5.20
2019-03-29T14:55:25.596Z,4.70
2019-03-29T14:57:55.624Z,4.73
2019-03-29T15:00:39.609Z,4.20
2019-03-29T15:03:09.064Z,6.33
2019-03-29T15:05:38.915Z,6.30
2019-03-29T15:08:08.673Z,5.30
2019-03-29T15:10:38.349Z,5.07
2019-03-29T15:13:07.808Z,4.90
2019-03-29T15:15:37.359Z,5.77
2019-03-29T15:18:07.008Z,4.90
2019-03-29T15:20:36.497Z,6.00
2019-03-29T15:23:05.918Z,5.37
2019-03-29T15:25:35.397Z,4.63
2019-03-29T15:28:04.876Z,5.97
2019-03-29T15:30:34.591Z,6.13
2019-03-29T15:33:04.052Z,5.50
2019-03-29T15:35:33.563Z,5.00
2019-03-29T15:38:03.224Z,4.87
2019-03-29T15:40:32.968Z,6.30
2019-03-29T15:43:02.344Z,5.70
2019-03-29T15:45:31.752Z,6.40
2019-03-29T15:48:01.084Z,6.60
2019-03-29T15:50:31.139Z,5.53
2019-03-29T15:53:00.491Z,5.43
2019-03-29T15:55:29.974Z,6.60
2019-03-29T15:57:59.421Z,6.20
2019-03-29T16:00:28.773Z,6.60
2019-03-29T16:02:58.224Z,6.70
2019-03-29T16:05:27.728Z,7.37
2019-03-29T16:07:57.180Z,7.43
2019-03-29T16:10:26.560Z,6.37
2019-03-29T16:12:55.993Z,6.90
2019-03-29T16:15:34.183Z,6.57
2019-03-29T16:17:56.516Z,6.27
2019-03-29T16:20:25.892Z,6.20
2019-03-29T16:22:55.210Z,5.80
2019-03-29T16:25:24.945Z,5.37
2019-03-29T16:27:54.596Z,6.70
2019-03-29T16:30:24.089Z,6.10
2019-03-29T16:32:53.545Z,6.10
2019-03-29T16:35:22.893Z,6.07
2019-03-29T16:37:57.325Z,6.97
2019-03-29T16:40:23.359Z,6.67
2019-03-29T16:42:52.899Z,6.30
2019-03-29T16:45:22.199Z,6.10
2019-03-29T16:47:51.685Z,7.23
2019-03-29T16:50:21.088Z,6.57
2019-03-29T16:52:50.918Z,6.53
2019-03-29T16:55:20.642Z,7.50
2019-03-29T16:57:50.139Z,7.30
2019-03-29T17:00:20.240Z,6.80
2019-03-29T17:02:49.843Z,7.40
2019-03-29T17:05:19.168Z,6.80
2019-03-29T17:07:48.636Z,6.67
2019-03-29T17:10:18.141Z,7.20
2019-03-29T17:12:47.577Z,6.07
2019-03-29T17:15:16.970Z,6.40
2019-03-29T17:17:46.646Z,7.13
2019-03-29T17:20:16.404Z,5.93
2019-03-29T17:22:45.832Z,6.80
2019-03-29T17:25:15.133Z,8.07
2019-03-29T17:27:44.628Z,7.23
2019-03-29T17:30:17.032Z,6.63
2019-03-29T17:32:46.357Z,6.87
2019-03-29T17:35:15.813Z,7.30
2019-03-29T17:37:45.250Z,7.73
2019-03-29T17:40:15.067Z,6.13
2019-03-29T17:42:44.372Z,11.63
2019-03-29T17:45:14.008Z,6.30
2019-03-29T17:47:43.440Z,7.70
2019-03-29T17:50:13.456Z,6.90
2019-03-29T17:52:42.880Z,6.40
2019-03-29T17:55:12.401Z,9.87
2019-03-29T17:57:41.835Z,7.30
2019-03-29T18:00:13.508Z,7.60
2019-03-29T18:02:43.024Z,7.00
2019-03-29T18:05:12.529Z,6.77
2019-03-29T18:07:42.252Z,7.23
2019-03-29T18:10:12.327Z,7.90
2019-03-29T18:12:41.695Z,8.70
2019-03-29T18:15:11.760Z,7.40
2019-03-29T18:17:41.200Z,6.93
2019-03-29T18:20:11.478Z,7.60
2019-03-29T18:22:40.879Z,7.30
2019-03-29T18:25:10.588Z,7.00
2019-03-29T18:27:40.092Z,7.53
2019-03-29T18:30:10.540Z,7.33
2019-03-29T18:32:40.152Z,7.47
2019-03-29T18:35:10.061Z,8.13
2019-03-29T18:37:40.213Z,7.07
2019-03-29T18:40:19.969Z,8.63
2019-03-29T18:42:49.291Z,6.60
2019-03-29T18:45:18.828Z,7.40
2019-03-29T18:47:48.244Z,8.53
2019-03-29T18:50:18.040Z,7.90
2019-03-29T18:52:47.461Z,6.87
2019-03-29T18:55:16.876Z,7.70
2019-03-29T18:57:46.389Z,7.17
2019-03-29T19:00:18.865Z,7.27
2019-03-29T19:02:48.304Z,7.80
2019-03-29T19:05:25.567Z,8.00
2019-03-29T19:07:54.900Z,8.60
2019-03-29T19:10:24.682Z,8.10
2019-03-29T19:12:54.550Z,9.10
2019-03-29T19:15:24.268Z,8.87
2019-03-29T19:17:53.658Z,9.03
2019-03-29T19:20:27.736Z,9.27
2019-03-29T19:22:54.704Z,9.80
2019-03-29T19:25:24.208Z,11.00
2019-03-29T19:27:53.760Z,15.07
2019-03-29T19:30:23.432Z,15.40
2019-03-29T19:32:52.878Z,14.00
2019-03-29T19:35:22.720Z,11.53
2019-03-29T19:37:52.313Z,10.80
2019-03-29T19:40:21.769Z,11.40
2019-03-29T19:42:51.302Z,11.37
2019-03-29T19:45:21.303Z,12.63
2019-03-29T19:47:51.172Z,12.20
2019-03-29T19:50:20.713Z,14.20
2019-03-29T19:52:50.168Z,14.80
2019-03-29T19:55:19.598Z,12.70
2019-03-29T19:57:48.988Z,10.57
2019-03-29T20:00:19.417Z,11.90
2019-03-29T20:02:48.819Z,13.83
2019-03-29T20:05:28.710Z,15.70
2019-03-29T20:07:58.229Z,14.07
2019-03-29T20:10:27.852Z,12.70
2019-03-29T20:12:57.464Z,13.30
2019-03-29T20:15:27.285Z,12.67
2019-03-29T20:17:56.680Z,13.47
2019-03-29T20:20:27.033Z,13.87
2019-03-29T20:22:57.876Z,12.20
2019-03-29T20:25:27.376Z,12.77
2019-03-29T20:27:58.543Z,12.13
2019-03-29T20:30:28.562Z,16.57
2019-03-29T20:32:58.060Z,18.80
2019-03-29T20:35:27.603Z,21.63
2019-03-29T20:37:57.128Z,18.47
2019-03-29T20:40:26.643Z,18.57
2019-03-29T20:42:56.079Z,19.07
2019-03-29T20:45:25.581Z,15.37
2019-03-29T20:47:55.197Z,15.27
2019-03-29T20:50:24.751Z,13.57
2019-03-29T20:52:54.152Z,19.23
2019-03-29T20:55:23.668Z,16.13
2019-03-29T20:57:53.025Z,15.57
2019-03-29T21:00:23.239Z,15.20
2019-03-29T21:02:52.624Z,14.90
2019-03-29T21:05:22.280Z,14.73
2019-03-29T21:07:54.806Z,15.10
2019-03-29T21:10:22.709Z,13.83
2019-03-29T21:12:52.901Z,14.97
2019-03-29T21:15:22.379Z,14.53
2019-03-29T21:17:57.073Z,13.30
2019-03-29T21:20:23.168Z,13.00
2019-03-29T21:22:52.820Z,12.60
2019-03-29T21:25:22.343Z,13.03
2019-03-29T21:27:51.655Z,14.23
2019-03-29T21:30:21.256Z,12.77
2019-03-29T21:32:50.780Z,14.93
2019-03-29T21:35:20.220Z,16.43
2019-03-29T21:37:49.670Z,15.00
2019-03-29T21:40:19.076Z,16.10
2019-03-29T21:42:48.550Z,16.37
2019-03-29T21:45:28.529Z,16.23
2019-03-29T21:48:01.948Z,13.53
2019-03-29T21:50:21.149Z,14.80
2019-03-29T21:52:50.469Z,12.97
2019-03-29T21:55:19.900Z,14.40
2019-03-29T21:57:49.250Z,14.03
2019-03-29T22:00:19.496Z,14.93
2019-03-29T22:02:48.916Z,15.40
2019-03-29T22:05:18.404Z,15.27
2019-03-29T22:07:48.021Z,16.33
2019-03-29T22:10:17.350Z,14.40
2019-03-29T22:12:47.255Z,14.23
2019-03-29T22:15:17.415Z,15.03
2019-03-29T22:17:47.218Z,15.27
2019-03-29T22:20:17.157Z,15.27
2019-03-29T22:22:46.615Z,15.00
2019-03-29T22:25:16.055Z,16.57
2019-03-29T22:27:45.664Z,19.30
2019-03-29T22:30:15.184Z,17.87
2019-03-29T22:32:44.706Z,18.00
2019-03-29T22:35:14.396Z,16.40
2019-03-29T22:37:44.099Z,17.70
2019-03-29T22:40:13.624Z,18.63
2019-03-29T22:42:43.032Z,16.63
2019-03-29T22:45:12.917Z,16.23
2019-03-29T22:47:42.525Z,15.00
2019-03-29T22:50:12.060Z,15.33
2019-03-29T22:52:41.500Z,14.60
2019-03-29T22:55:11.285Z,15.63
2019-03-29T22:57:40.619Z,16.20
2019-03-29T23:00:15.348Z,15.77
2019-03-29T23:02:45.384Z,15.10
2019-03-29T23:05:15.300Z,15.90
2019-03-29T23:07:44.713Z,14.20
2019-03-29T23:10:14.164Z,15.67
2019-03-29T23:12:43.856Z,16.50
2019-03-29T23:15:13.471Z,16.70
2019-03-29T23:17:42.904Z,16.27
2019-03-29T23:20:12.821Z,15.50
2019-03-29T23:22:42.285Z,14.80
2019-03-29T23:25:12.126Z,14.07
2019-03-29T23:27:41.609Z,17.20
2019-03-29T23:30:11.825Z,16.53
2019-03-29T23:32:41.265Z,14.70
2019-03-29T23:35:10.879Z,16.40
2019-03-29T23:37:40.326Z,19.03
2019-03-29T23:40:10.233Z,16.77
2019-03-29T23:42:42.825Z,17.00
2019-03-29T23:45:12.503Z,16.10
2019-03-29T23:47:41.856Z,18.00
2019-03-29T23:50:11.613Z,14.43
2019-03-29T23:52:41.033Z,15.80
2019-03-29T23:55:10.492Z,15.63
2019-03-29T23:57:39.924Z,14.73
